createdAt,value
2023-04-21T00:02:01.323Z,12.95
2023-04-21T00:04:29.073Z,12.52
2023-04-21T00:06:56.223Z,13.18
2023-04-21T00:09:23.194Z,12.65
2023-04-21T00:11:50.240Z,13.23
2023-04-21T00:14:17.773Z,12.98
2023-04-21T00:16:44.832Z,13.35
2023-04-21T00:19:13.789Z,13.93
2023-04-21T00:21:40.891Z,13.25
2023-04-21T00:24:08.878Z,13.20
2023-04-21T00:26:35.823Z,14.57
2023-04-21T00:29:03.912Z,13.25
2023-04-21T00:31:31.686Z,14.43
2023-04-21T00:33:59.065Z,14.82
2023-04-21T00:36:28.254Z,13.93
2023-04-21T00:38:55.609Z,15.35
2023-04-21T00:41:23.745Z,15.25
2023-04-21T00:44:10.520Z,14.90
2023-04-21T00:46:38.649Z,14.75
2023-04-21T00:49:08.462Z,14.98
2023-04-21T00:51:37.286Z,16.20
2023-04-21T00:54:07.045Z,15.98
2023-04-21T00:56:36.721Z,14.75
2023-04-21T00:59:04.315Z,16.30
2023-04-21T01:01:34.335Z,16.48
2023-04-21T01:04:03.900Z,16.27
2023-04-21T01:06:34.758Z,15.88
2023-04-21T01:09:05.194Z,16.38
2023-04-21T01:11:32.677Z,17.08
2023-04-21T01:14:00.949Z,16.42
2023-04-21T01:16:29.622Z,17.60
2023-04-21T01:18:57.197Z,17.10
2023-04-21T01:21:24.482Z,16.67
2023-04-21T01:23:51.904Z,17.92
2023-04-21T01:26:23.644Z,17.70
2023-04-21T01:28:50.838Z,17.42
2023-04-21T01:31:18.804Z,16.48
2023-04-21T01:33:46.015Z,17.75
2023-04-21T01:36:13.165Z,17.63
2023-04-21T01:38:42.512Z,16.75
2023-04-21T01:41:10.962Z,17.88
2023-04-21T01:43:38.719Z,18.27
2023-04-21T01:46:06.983Z,17.67
2023-04-21T01:48:34.291Z,18.73
2023-04-21T01:51:01.514Z,18.10
2023-04-21T01:53:28.665Z,16.92
2023-04-21T01:55:55.865Z,18.05
2023-04-21T01:58:23.027Z,17.80
2023-04-21T02:00:51.562Z,18.63
2023-04-21T02:03:18.785Z,17.52
2023-04-21T02:05:46.483Z,17.17
2023-04-21T02:08:13.475Z,17.75
2023-04-21T02:10:41.449Z,18.92
2023-04-21T02:13:11.946Z,17.60
2023-04-21T02:15:38.970Z,20.00
2023-04-21T02:18:08.302Z,18.63
2023-04-21T02:20:35.444Z,19.40
2023-04-21T02:23:02.494Z,19.42
2023-04-21T02:25:30.045Z,19.73
2023-04-21T02:27:57.168Z,19.50
2023-04-21T02:30:27.607Z,18.77
2023-04-21T02:32:54.856Z,20.30
2023-04-21T02:35:22.017Z,20.55
2023-04-21T02:37:50.960Z,20.30
2023-04-21T02:40:18.178Z,20.20
2023-04-21T02:42:45.406Z,19.60
2023-04-21T02:45:12.536Z,20.58
2023-04-21T02:47:39.540Z,21.02
2023-04-21T02:50:07.184Z,21.80
2023-04-21T02:52:40.464Z,20.42
2023-04-21T02:55:08.050Z,21.33
2023-04-21T02:57:35.077Z,20.30
2023-04-21T03:00:02.097Z,19.73
2023-04-21T03:02:29.346Z,21.25
2023-04-21T03:04:56.696Z,21.33
2023-04-21T03:07:23.767Z,19.52
2023-04-21T03:09:50.756Z,19.70
2023-04-21T03:12:17.771Z,20.35
2023-04-21T03:14:44.843Z,20.95
2023-04-21T03:17:11.880Z,20.10
2023-04-21T03:19:38.966Z,20.75
2023-04-21T03:22:06.599Z,20.92
2023-04-21T03:24:33.749Z,20.67
2023-04-21T03:27:01.779Z,20.75
2023-04-21T03:29:28.837Z,21.02
2023-04-21T03:31:56.180Z,21.52
2023-04-21T03:34:23.779Z,21.80
2023-04-21T03:36:50.831Z,22.10
2023-04-21T03:39:20.151Z,20.65
2023-04-21T03:41:48.947Z,22.08
2023-04-21T03:44:16.180Z,22.20
2023-04-21T03:46:43.212Z,22.02
2023-04-21T03:49:10.579Z,21.17
2023-04-21T03:51:37.543Z,21.45
2023-04-21T03:54:04.588Z,21.98
2023-04-21T03:56:31.584Z,22.60
2023-04-21T03:58:58.647Z,23.67
2023-04-21T04:01:25.551Z,21.33
2023-04-21T04:03:52.800Z,23.20
2023-04-21T04:06:19.917Z,23.50
2023-04-21T04:08:47.011Z,23.70
2023-04-21T04:11:13.951Z,22.75
2023-04-21T04:13:41.071Z,23.25
2023-04-21T04:16:08.329Z,23.48
2023-04-21T04:18:35.500Z,22.13
2023-04-21T04:21:09.114Z,23.63
2023-04-21T04:23:36.586Z,21.73
2023-04-21T04:26:05.572Z,22.48
2023-04-21T04:28:33.648Z,24.00
2023-04-21T04:31:01.176Z,22.70
2023-04-21T04:33:28.156Z,22.75
2023-04-21T04:35:55.300Z,23.52
2023-04-21T04:38:23.079Z,21.83
2023-04-21T04:40:58.905Z,22.55
2023-04-21T04:43:25.937Z,23.52
2023-04-21T04:45:53.342Z,24.08
2023-04-21T04:48:20.894Z,24.08
2023-04-21T04:50:47.861Z,23.17
2023-04-21T04:53:15.277Z,23.65
2023-04-21T04:55:42.266Z,24.35
2023-04-21T04:58:09.212Z,22.92
2023-04-21T05:00:37.654Z,23.60
2023-04-21T05:03:05.394Z,24.20
2023-04-21T05:05:32.561Z,23.58
2023-04-21T05:07:59.696Z,22.08
2023-04-21T05:10:26.660Z,23.10
2023-04-21T05:12:53.709Z,22.60
2023-04-21T05:15:22.523Z,23.45
2023-04-21T05:17:49.576Z,23.33
2023-04-21T05:20:16.704Z,23.83
2023-04-21T05:22:43.839Z,24.45
2023-04-21T05:25:15.889Z,25.30
2023-04-21T05:27:43.563Z,22.27
2023-04-21T05:30:11.373Z,22.85
2023-04-21T05:32:38.412Z,20.52
2023-04-21T05:35:06.266Z,23.80
2023-04-21T05:37:33.332Z,24.27
2023-04-21T05:40:00.639Z,24.42
2023-04-21T05:42:27.659Z,25.13
2023-04-21T05:44:55.281Z,24.83
2023-04-21T05:47:22.329Z,24.20
2023-04-21T05:49:53.846Z,22.83
2023-04-21T05:52:23.660Z,24.15
2023-04-21T05:54:50.752Z,23.95
2023-04-21T05:57:17.851Z,24.60
2023-04-21T05:59:44.924Z,24.65
2023-04-21T06:02:12.240Z,24.55
2023-04-21T06:04:39.533Z,25.65
2023-04-21T06:07:09.044Z,24.98
2023-04-21T06:09:36.767Z,25.45
2023-04-21T06:12:04.308Z,25.30
2023-04-21T06:14:31.560Z,24.83
2023-04-21T06:16:58.733Z,25.60
2023-04-21T06:19:25.828Z,25.38
2023-04-21T06:21:52.714Z,25.95
2023-04-21T06:24:25.251Z,26.65
2023-04-21T06:26:53.296Z,26.10
2023-04-21T06:29:20.889Z,25.88
2023-04-21T06:31:48.098Z,27.40
2023-04-21T06:34:15.741Z,26.25
2023-04-21T06:36:42.666Z,27.13
2023-04-21T06:39:09.594Z,26.20
2023-04-21T06:41:36.847Z,26.67
2023-04-21T06:44:03.786Z,26.50
2023-04-21T06:46:31.357Z,26.05
2023-04-21T06:48:58.478Z,26.92
2023-04-21T06:51:25.606Z,25.77
2023-04-21T06:53:52.661Z,25.73
2023-04-21T06:56:19.604Z,26.27
2023-04-21T06:58:47.024Z,25.45
2023-04-21T07:01:14.004Z,25.05
2023-04-21T07:03:41.377Z,26.33
2023-04-21T07:06:08.412Z,24.77
2023-04-21T07:08:35.676Z,25.77
2023-04-21T07:11:02.722Z,25.75
2023-04-21T07:13:29.958Z,26.15
2023-04-21T07:15:57.100Z,24.88
2023-04-21T07:18:24.215Z,24.52
2023-04-21T07:20:51.444Z,23.83
2023-04-21T07:23:19.204Z,24.33
2023-04-21T07:25:46.139Z,23.00
2023-04-21T07:28:16.069Z,24.08
2023-04-21T07:30:43.084Z,24.15
2023-04-21T07:33:10.250Z,25.55
2023-04-21T07:35:37.226Z,23.42
2023-04-21T07:38:04.294Z,23.15
2023-04-21T07:40:31.812Z,22.75
2023-04-21T07:42:58.844Z,23.85
2023-04-21T07:45:26.453Z,21.83
2023-04-21T07:47:53.732Z,23.45
2023-04-21T07:50:20.911Z,23.20
2023-04-21T07:52:48.153Z,23.42
2023-04-21T07:55:15.174Z,22.65
2023-04-21T07:57:42.389Z,21.98
2023-04-21T08:00:10.852Z,22.17
2023-04-21T08:02:40.940Z,22.33
2023-04-21T08:05:08.728Z,22.40
2023-04-21T08:07:36.510Z,23.75
2023-04-21T08:10:04.257Z,23.73
2023-04-21T08:12:31.139Z,21.42
2023-04-21T08:14:58.191Z,23.13
2023-04-21T08:17:25.409Z,22.98
2023-04-21T08:19:52.467Z,22.00
2023-04-21T08:22:19.419Z,21.80
2023-04-21T08:24:46.444Z,23.17
2023-04-21T08:27:13.401Z,22.15
2023-04-21T08:29:40.421Z,23.40
2023-04-21T08:32:07.590Z,21.80
2023-04-21T08:34:35.201Z,21.95
2023-04-21T08:37:02.233Z,22.58
2023-04-21T08:39:29.604Z,23.42
2023-04-21T08:41:58.916Z,21.63
2023-04-21T08:44:26.605Z,23.58
2023-04-21T08:46:56.483Z,23.70
2023-04-21T08:49:24.440Z,22.08
2023-04-21T08:51:51.375Z,24.40
2023-04-21T08:54:18.697Z,23.65
2023-04-21T08:56:47.588Z,25.00
2023-04-21T08:59:14.583Z,23.42
2023-04-21T09:02:19.893Z,23.85
2023-04-21T09:04:51.891Z,24.05
2023-04-21T09:07:36.135Z,22.92
2023-04-21T09:10:06.144Z,22.98
2023-04-21T09:12:33.196Z,23.83
2023-04-21T09:15:05.582Z,23.27
2023-04-21T09:17:33.717Z,24.15
2023-04-21T09:20:18.931Z,21.95
2023-04-21T09:22:49.559Z,21.77
2023-04-21T09:25:19.781Z,21.55
2023-04-21T09:27:47.863Z,20.70
2023-04-21T09:30:20.003Z,19.65
2023-04-21T09:32:47.186Z,18.75
2023-04-21T09:35:14.587Z,18.90
2023-04-21T09:37:44.565Z,19.45
2023-04-21T09:40:18.353Z,18.90
2023-04-21T09:42:46.010Z,17.83
2023-04-21T09:45:36.645Z,18.02
2023-04-21T09:48:09.582Z,17.95
2023-04-21T09:53:16.537Z,19.05
2023-04-21T09:55:51.611Z,19.35
2023-04-21T10:00:51.332Z,18.38
2023-04-21T10:03:21.006Z,18.88
2023-04-21T10:05:48.098Z,17.50
2023-04-21T10:08:17.160Z,16.58
2023-04-21T10:10:46.684Z,17.42
2023-04-21T10:13:18.576Z,16.75
2023-04-21T10:15:45.549Z,16.50
2023-04-21T10:18:19.873Z,18.30
2023-04-21T10:21:04.415Z,18.90
2023-04-21T10:23:44.152Z,19.07
2023-04-21T10:26:20.367Z,19.38
2023-04-21T10:28:57.549Z,19.08
2023-04-21T10:31:53.645Z,18.70
2023-04-21T10:34:24.794Z,18.17
2023-04-21T10:36:54.706Z,18.67
2023-04-21T10:39:30.355Z,17.65
2023-04-21T10:42:19.694Z,17.92
2023-04-21T10:44:58.622Z,18.52
2023-04-21T10:47:31.393Z,18.55
2023-04-21T10:50:00.526Z,18.15
2023-04-21T10:52:36.101Z,17.88
2023-04-21T10:55:08.517Z,16.98
2023-04-21T10:57:38.670Z,17.85
2023-04-21T11:00:07.126Z,16.52
2023-04-21T11:02:38.671Z,16.73
2023-04-21T11:05:10.026Z,16.67
2023-04-21T11:07:37.451Z,17.35
2023-04-21T11:10:08.070Z,17.67
2023-04-21T11:12:38.943Z,16.85
2023-04-21T11:15:14.333Z,17.08
2023-04-21T11:17:43.703Z,17.50
2023-04-21T11:20:11.114Z,17.10
2023-04-21T11:22:38.763Z,16.25
2023-04-21T11:25:16.209Z,18.05
2023-04-21T11:27:53.643Z,16.85
2023-04-21T11:30:20.977Z,17.13
2023-04-21T11:32:56.140Z,17.13
2023-04-21T11:35:23.689Z,17.73
2023-04-21T11:37:52.136Z,17.05
2023-04-21T11:40:19.514Z,16.55
2023-04-21T11:42:46.635Z,17.85
2023-04-21T11:45:21.889Z,16.75
2023-04-21T11:47:49.758Z,16.33
2023-04-21T11:50:34.385Z,16.77
2023-04-21T11:53:03.559Z,17.17
2023-04-21T11:55:30.640Z,16.40
2023-04-21T11:57:57.848Z,16.85
2023-04-21T12:00:31.315Z,16.23
2023-04-21T12:02:58.469Z,16.58
2023-04-21T12:05:25.972Z,16.45
2023-04-21T12:07:56.471Z,16.85
2023-04-21T12:10:23.702Z,15.50
2023-04-21T12:12:51.768Z,14.48
2023-04-21T12:15:22.782Z,16.13
2023-04-21T12:17:54.520Z,15.65
2023-04-21T12:20:28.310Z,14.18
2023-04-21T12:22:56.430Z,14.77
2023-04-21T12:25:24.579Z,13.65
2023-04-21T12:27:59.293Z,13.88
2023-04-21T12:30:26.333Z,14.20
2023-04-21T12:32:55.763Z,13.60
2023-04-21T12:35:23.450Z,12.75
2023-04-21T12:37:50.406Z,13.15
2023-04-21T12:40:18.307Z,12.18
2023-04-21T12:42:45.319Z,11.40
2023-04-21T12:45:13.417Z,11.63
2023-04-21T12:47:42.989Z,10.93
2023-04-21T12:50:12.573Z,11.10
2023-04-21T12:52:39.586Z,11.70
2023-04-21T12:55:06.775Z,11.65
2023-04-21T12:57:34.047Z,11.93
2023-04-21T13:00:01.097Z,12.13
2023-04-21T13:02:28.432Z,12.68
2023-04-21T13:04:55.512Z,11.90
2023-04-21T13:07:26.647Z,11.07
2023-04-21T13:09:53.738Z,11.00
2023-04-21T13:12:21.307Z,11.20
2023-04-21T13:14:48.287Z,11.02
2023-04-21T13:17:16.390Z,10.68
2023-04-21T13:19:43.511Z,10.52
2023-04-21T13:22:10.480Z,11.25
2023-04-21T13:24:37.531Z,11.38
2023-04-21T13:27:13.666Z,10.70
2023-04-21T13:29:41.317Z,11.50
2023-04-21T13:32:08.901Z,10.52
2023-04-21T13:34:36.220Z,11.68
2023-04-21T13:37:03.659Z,12.05
2023-04-21T13:39:30.974Z,12.05
2023-04-21T13:41:58.208Z,12.23
2023-04-21T13:44:25.505Z,11.20
2023-04-21T13:46:53.806Z,11.18
2023-04-21T13:49:21.088Z,10.73
2023-04-21T13:51:48.107Z,11.40
2023-04-21T13:54:15.132Z,10.80
2023-04-21T13:56:42.173Z,11.05
2023-04-21T13:59:10.849Z,10.02
2023-04-21T14:01:37.967Z,9.88
2023-04-21T14:04:05.056Z,9.50
2023-04-21T14:06:33.091Z,10.48
2023-04-21T14:09:01.264Z,10.77
2023-04-21T14:11:28.593Z,10.40
2023-04-21T14:14:09.069Z,9.65
2023-04-21T14:16:37.986Z,9.60
2023-04-21T14:19:05.085Z,8.90
2023-04-21T14:21:32.678Z,8.77
2023-04-21T14:23:59.809Z,8.80
2023-04-21T14:26:27.033Z,8.23
2023-04-21T14:28:54.056Z,8.30
2023-04-21T14:31:22.273Z,9.07
2023-04-21T14:33:49.541Z,8.32
2023-04-21T14:36:16.577Z,8.20
2023-04-21T14:38:43.728Z,8.15
2023-04-21T14:41:10.701Z,7.72
2023-04-21T14:43:37.790Z,6.88
2023-04-21T14:46:05.209Z,6.72
2023-04-21T14:48:32.652Z,6.10
2023-04-21T14:50:59.782Z,6.78
2023-04-21T14:53:27.251Z,6.78
2023-04-21T14:55:54.872Z,6.53
2023-04-21T14:58:22.006Z,7.05
2023-04-21T15:00:49.053Z,6.55
2023-04-21T15:03:16.488Z,6.65
2023-04-21T15:05:43.597Z,6.20
2023-04-21T15:08:11.891Z,6.30
2023-04-21T15:10:38.909Z,5.68
2023-04-21T15:13:06.118Z,6.55
2023-04-21T15:15:33.119Z,7.07
2023-04-21T15:18:00.186Z,6.53
2023-04-21T15:20:40.739Z,6.55
2023-04-21T15:23:11.966Z,6.43
2023-04-21T15:25:39.911Z,6.47
2023-04-21T15:28:07.631Z,7.07
2023-04-21T15:30:34.669Z,6.15
2023-04-21T15:33:01.769Z,6.15
2023-04-21T15:35:28.760Z,6.03
2023-04-21T15:37:55.807Z,6.20
2023-04-21T15:40:22.886Z,5.65
2023-04-21T15:42:49.892Z,6.10
2023-04-21T15:45:18.204Z,5.97
2023-04-21T15:47:45.557Z,5.90
2023-04-21T15:50:13.720Z,6.15
2023-04-21T15:52:43.373Z,6.28
2023-04-21T15:55:13.713Z,6.22
2023-04-21T15:57:40.860Z,5.68
2023-04-21T16:00:10.331Z,6.05
2023-04-21T16:02:37.784Z,5.43
2023-04-21T16:05:05.670Z,5.75
2023-04-21T16:07:33.040Z,5.63
2023-04-21T16:10:00.350Z,6.07
2023-04-21T16:12:28.164Z,5.82
2023-04-21T16:14:59.491Z,6.60
2023-04-21T16:17:36.631Z,5.93
2023-04-21T16:20:05.757Z,5.22
2023-04-21T16:22:33.115Z,5.78
2023-04-21T16:25:00.907Z,6.10
2023-04-21T16:27:28.090Z,6.38
2023-04-21T16:29:55.166Z,6.07
2023-04-21T16:32:22.329Z,6.10
2023-04-21T16:34:49.362Z,5.53
2023-04-21T16:37:16.514Z,5.68
2023-04-21T16:39:43.587Z,5.57
2023-04-21T16:42:10.739Z,5.68
2023-04-21T16:44:37.940Z,5.78
2023-04-21T16:47:05.974Z,6.30
2023-04-21T16:49:32.989Z,6.13
2023-04-21T16:52:00.541Z,5.68
2023-04-21T16:54:27.540Z,5.97
2023-04-21T16:56:54.664Z,5.80
2023-04-21T16:59:23.670Z,5.35
2023-04-21T17:01:50.788Z,5.07
2023-04-21T17:04:17.851Z,5.10
2023-04-21T17:06:44.882Z,5.20
2023-04-21T17:09:11.877Z,4.90
2023-04-21T17:11:40.182Z,4.57
2023-04-21T17:14:07.239Z,4.70
2023-04-21T17:16:34.561Z,5.00
2023-04-21T17:19:02.468Z,5.00
2023-04-21T17:21:29.507Z,4.60
2023-04-21T17:23:56.534Z,4.82
2023-04-21T17:26:23.955Z,4.15
2023-04-21T17:28:51.479Z,4.22
2023-04-21T17:31:18.792Z,4.55
2023-04-21T17:33:45.921Z,4.35
2023-04-21T17:36:13.353Z,4.47
2023-04-21T17:38:42.586Z,4.28
2023-04-21T17:41:09.816Z,4.38
2023-04-21T17:43:37.233Z,3.90
2023-04-21T17:46:06.402Z,3.83
2023-04-21T17:48:34.000Z,2.80
2023-04-21T17:51:01.004Z,2.92
2023-04-21T17:53:27.984Z,2.80
2023-04-21T17:55:54.953Z,2.38
2023-04-21T17:58:22.712Z,2.33
2023-04-21T18:00:49.598Z,3.00
2023-04-21T18:03:16.870Z,2.45
2023-04-21T18:05:44.650Z,2.10
2023-04-21T18:08:11.946Z,2.40
2023-04-21T18:10:38.951Z,1.88
2023-04-21T18:13:06.686Z,2.05
2023-04-21T18:15:33.729Z,1.65
2023-04-21T18:18:00.787Z,2.03
2023-04-21T18:20:28.063Z,1.90
2023-04-21T18:22:55.259Z,2.22
2023-04-21T18:25:38.397Z,1.90
2023-04-21T18:28:10.978Z,2.28
2023-04-21T18:30:39.460Z,2.10
2023-04-21T18:33:06.871Z,2.17
2023-04-21T18:35:34.087Z,1.60
2023-04-21T18:38:01.301Z,1.83
2023-04-21T18:40:28.350Z,2.42
2023-04-21T18:42:56.875Z,2.15
2023-04-21T18:45:23.897Z,2.25
2023-04-21T18:47:50.934Z,2.50
2023-04-21T18:50:18.101Z,3.10
2023-04-21T18:52:45.011Z,2.90
2023-04-21T18:55:12.181Z,3.08
2023-04-21T18:57:39.231Z,3.10
2023-04-21T19:00:07.627Z,3.65
2023-04-21T19:02:34.612Z,3.20
2023-04-21T19:05:01.940Z,4.50
2023-04-21T19:07:28.891Z,3.58
2023-04-21T19:09:55.839Z,3.55
2023-04-21T19:12:23.179Z,3.67
2023-04-21T19:14:51.485Z,5.07
2023-04-21T19:17:18.742Z,6.25
2023-04-21T19:19:45.931Z,6.47
2023-04-21T19:22:13.171Z,6.47
2023-04-21T19:24:40.398Z,4.80
2023-04-21T19:27:07.501Z,4.28
2023-04-21T19:29:36.546Z,4.25
2023-04-21T19:32:03.902Z,5.22
2023-04-21T19:34:30.868Z,4.28
2023-04-21T19:36:57.930Z,4.55
2023-04-21T19:39:25.046Z,4.55
2023-04-21T19:41:52.054Z,4.68
2023-04-21T19:44:19.065Z,4.72
2023-04-21T19:46:46.145Z,4.60
2023-04-21T19:49:14.188Z,4.63
2023-04-21T19:51:42.238Z,4.57
2023-04-21T19:54:12.493Z,2.50
2023-04-21T19:56:40.756Z,2.40
2023-04-21T19:59:08.610Z,1.88
2023-04-21T20:01:41.546Z,2.00
2023-04-21T20:04:11.920Z,2.03
2023-04-21T20:06:39.976Z,1.52
2023-04-21T20:09:07.118Z,1.73
2023-04-21T20:11:34.419Z,2.97
2023-04-21T20:14:04.196Z,1.98
2023-04-21T20:16:33.005Z,2.78
2023-04-21T20:19:05.722Z,2.20
2023-04-21T20:22:21.250Z,2.40
2023-04-21T20:25:19.276Z,1.95
2023-04-21T20:27:56.446Z,1.90
2023-04-21T20:30:25.180Z,1.45
2023-04-21T20:32:52.729Z,1.60
2023-04-21T20:35:19.918Z,1.85
2023-04-21T20:37:47.431Z,2.13
2023-04-21T20:40:14.907Z,1.77
2023-04-21T20:42:45.155Z,1.52
2023-04-21T20:45:17.430Z,1.60
2023-04-21T20:47:45.247Z,1.83
2023-04-21T20:50:12.740Z,1.95
2023-04-21T20:52:39.826Z,2.38
2023-04-21T20:55:07.342Z,1.85
2023-04-21T20:57:34.903Z,1.48
2023-04-21T21:00:02.281Z,1.83
2023-04-21T21:02:30.160Z,1.67
2023-04-21T21:04:57.500Z,1.95
2023-04-21T21:07:24.706Z,1.92
2023-04-21T21:09:51.913Z,2.08
2023-04-21T21:12:18.926Z,1.77
2023-04-21T21:14:45.974Z,2.15
2023-04-21T21:17:16.393Z,3.50
2023-04-21T21:19:43.776Z,4.35
2023-04-21T21:22:10.759Z,3.17
2023-04-21T21:24:37.785Z,7.55
2023-04-21T21:27:04.946Z,7.32
2023-04-21T21:29:32.124Z,3.10
2023-04-21T21:31:59.220Z,2.40
2023-04-21T21:34:26.495Z,2.75
2023-04-21T21:36:53.703Z,2.88
2023-04-21T21:39:21.019Z,3.03
2023-04-21T21:41:48.022Z,3.33
2023-04-21T21:44:15.238Z,3.33
2023-04-21T21:46:42.867Z,2.80
2023-04-21T21:49:11.097Z,3.00
2023-04-21T21:51:38.212Z,3.20
2023-04-21T21:54:06.704Z,3.63
2023-04-21T21:56:33.950Z,3.80
2023-04-21T21:59:01.099Z,9.13
2023-04-21T22:01:28.212Z,6.20
2023-04-21T22:03:55.497Z,6.22
2023-04-21T22:06:24.240Z,4.70
2023-04-21T22:08:52.257Z,4.32
2023-04-21T22:11:19.913Z,4.28
2023-04-21T22:13:47.380Z,4.45
2023-04-21T22:16:14.435Z,4.22
2023-04-21T22:18:41.676Z,4.70
2023-04-21T22:21:08.942Z,4.80
2023-04-21T22:23:36.607Z,4.57
2023-04-21T22:26:03.667Z,4.40
2023-04-21T22:28:30.912Z,4.47
2023-04-21T22:30:58.094Z,4.57
2023-04-21T22:33:25.296Z,4.43
2023-04-21T22:35:52.279Z,4.60
2023-04-21T22:38:19.361Z,5.15
2023-04-21T22:40:46.966Z,4.57
2023-04-21T22:43:14.144Z,4.50
2023-04-21T22:45:42.917Z,4.90
2023-04-21T22:48:10.177Z,4.55
2023-04-21T22:50:37.273Z,4.38
2023-04-21T22:53:04.507Z,4.50
2023-04-21T22:55:32.039Z,4.95
2023-04-21T22:58:00.056Z,4.95
2023-04-21T23:00:27.376Z,5.13
2023-04-21T23:02:54.943Z,5.45
2023-04-21T23:05:22.220Z,4.40
2023-04-21T23:07:49.305Z,5.18
2023-04-21T23:10:16.693Z,4.95
2023-04-21T23:12:44.113Z,5.28
2023-04-21T23:15:11.694Z,4.93
2023-04-21T23:17:39.075Z,5.38
2023-04-21T23:20:07.400Z,5.47
2023-04-21T23:22:34.553Z,5.50
2023-04-21T23:25:01.746Z,5.78
2023-04-21T23:27:28.902Z,5.38
2023-04-21T23:29:56.313Z,5.72
2023-04-21T23:32:23.546Z,5.03
2023-04-21T23:34:50.753Z,5.00
2023-04-21T23:37:17.866Z,4.85
2023-04-21T23:39:45.352Z,4.93
2023-04-21T23:42:12.629Z,5.30
2023-04-21T23:44:40.698Z,4.78
2023-04-21T23:47:08.267Z,5.07
2023-04-21T23:49:36.013Z,5.25
2023-04-21T23:52:03.651Z,5.72
2023-04-21T23:54:30.901Z,5.43
2023-04-21T23:56:58.714Z,6.05
2023-04-21T23:59:26.133Z,5.30
